createdAt,value
2019-03-10T00:02:10.333Z,32.77
2019-03-10T00:04:34.497Z,32.65
2019-03-10T00:07:01.035Z,32.88
2019-03-10T00:09:27.297Z,32.73
2019-03-10T00:11:53.656Z,32.81
2019-03-10T00:14:20.020Z,32.85
2019-03-10T00:16:46.460Z,32.84
2019-03-10T00:19:12.747Z,32.89
2019-03-10T00:21:39.156Z,32.85
2019-03-10T00:24:05.556Z,32.81
2019-03-10T00:26:31.845Z,32.87
2019-03-10T00:28:58.213Z,32.94
2019-03-10T00:31:24.546Z,32.97
2019-03-10T00:33:50.934Z,32.92
2019-03-10T00:36:17.238Z,32.95
2019-03-10T00:38:43.641Z,32.95
2019-03-10T00:41:09.983Z,32.92
2019-03-10T00:43:36.385Z,33.02
2019-03-10T00:46:02.735Z,33.07
2019-03-10T00:48:29.248Z,33.04
2019-03-10T00:50:55.555Z,33.00
2019-03-10T00:53:21.926Z,33.17
2019-03-10T00:55:48.252Z,33.33
2019-03-10T00:58:14.597Z,33.08
2019-03-10T01:00:41.022Z,33.17
2019-03-10T01:03:07.380Z,33.17
2019-03-10T01:05:34.331Z,33.15
2019-03-10T01:08:00.720Z,33.39
2019-03-10T01:10:27.064Z,33.24
2019-03-10T01:12:53.403Z,33.33
2019-03-10T01:15:19.774Z,33.39
2019-03-10T01:17:46.148Z,33.29
2019-03-10T01:20:12.439Z,33.43
2019-03-10T01:22:38.783Z,33.29
2019-03-10T01:25:05.150Z,33.28
2019-03-10T01:27:31.509Z,33.42
2019-03-10T01:29:57.846Z,33.41
2019-03-10T01:32:24.237Z,33.42
2019-03-10T01:34:50.524Z,33.37
2019-03-10T01:37:17.546Z,33.52
2019-03-10T01:39:43.952Z,33.49
2019-03-10T01:42:10.308Z,33.49
2019-03-10T01:44:36.621Z,33.52
2019-03-10T01:47:02.951Z,33.46
2019-03-10T01:49:29.333Z,33.52
2019-03-10T01:51:55.876Z,33.55
2019-03-10T01:54:22.335Z,33.59
2019-03-10T01:56:48.564Z,33.78
2019-03-10T01:59:14.931Z,33.62
2019-03-10T02:01:41.259Z,33.61
2019-03-10T02:04:07.666Z,33.70
2019-03-10T02:06:36.929Z,33.58
2019-03-10T02:09:03.296Z,33.72
2019-03-10T02:11:29.620Z,33.61
2019-03-10T02:13:56.037Z,33.67
2019-03-10T02:16:22.366Z,33.71
2019-03-10T02:18:48.698Z,33.73
2019-03-10T02:21:15.062Z,33.72
2019-03-10T02:23:41.569Z,33.83
2019-03-10T02:26:07.939Z,33.73
2019-03-10T02:28:34.250Z,33.88
2019-03-10T02:31:00.595Z,33.88
2019-03-10T02:33:26.935Z,33.82
2019-03-10T02:35:53.285Z,33.84
2019-03-10T02:38:19.779Z,33.97
2019-03-10T02:40:46.017Z,33.85
2019-03-10T02:43:12.354Z,33.80
2019-03-10T02:45:38.690Z,33.91
2019-03-10T02:48:05.043Z,33.88
2019-03-10T02:50:31.374Z,33.84
2019-03-10T02:52:57.739Z,33.89
2019-03-10T02:55:24.227Z,33.85
2019-03-10T02:57:50.622Z,33.82
2019-03-10T03:00:16.993Z,33.86
2019-03-10T03:02:43.495Z,33.88
2019-03-10T03:05:09.845Z,33.84
2019-03-10T03:07:36.193Z,33.97
2019-03-10T03:10:02.573Z,33.86
2019-03-10T03:12:28.913Z,33.88
2019-03-10T03:14:55.253Z,33.94
2019-03-10T03:17:21.583Z,33.97
2019-03-10T03:19:47.927Z,33.95
2019-03-10T03:22:14.338Z,33.97
2019-03-10T03:24:40.683Z,33.91
2019-03-10T03:27:07.064Z,34.05
2019-03-10T03:29:33.348Z,33.99
2019-03-10T03:31:59.812Z,33.91
2019-03-10T03:34:26.171Z,34.01
2019-03-10T03:36:52.483Z,33.91
2019-03-10T03:39:18.825Z,34.05
2019-03-10T03:41:45.265Z,33.89
2019-03-10T03:44:11.673Z,33.94
2019-03-10T03:46:37.966Z,33.98
2019-03-10T03:49:04.346Z,33.92
2019-03-10T03:51:30.728Z,33.97
2019-03-10T03:53:57.111Z,33.98
2019-03-10T03:56:23.443Z,33.91
2019-03-10T03:58:49.772Z,33.98
2019-03-10T04:01:16.102Z,33.95
2019-03-10T04:03:42.438Z,33.97
2019-03-10T04:06:08.771Z,33.97
2019-03-10T04:08:35.228Z,33.89
2019-03-10T04:11:01.554Z,33.98
2019-03-10T04:13:27.962Z,33.97
2019-03-10T04:15:54.294Z,33.96
2019-03-10T04:18:20.717Z,34.03
2019-03-10T04:20:47.037Z,34.14
2019-03-10T04:23:13.387Z,33.98
2019-03-10T04:25:39.732Z,34.04
2019-03-10T04:28:06.088Z,33.91
2019-03-10T04:30:32.463Z,33.94
2019-03-10T04:32:58.890Z,34.04
2019-03-10T04:35:25.229Z,33.94
2019-03-10T04:37:51.582Z,33.95
2019-03-10T04:40:17.911Z,33.91
2019-03-10T04:42:44.288Z,33.94
2019-03-10T04:45:10.631Z,33.97
2019-03-10T04:47:36.961Z,33.97
2019-03-10T04:50:03.328Z,33.94
2019-03-10T04:52:29.671Z,34.04
2019-03-10T04:54:56.083Z,34.00
2019-03-10T04:57:22.412Z,33.96
2019-03-10T04:59:48.698Z,33.84
2019-03-10T05:02:15.074Z,33.84
2019-03-10T05:04:41.401Z,33.76
2019-03-10T05:07:07.789Z,33.68
2019-03-10T05:09:34.119Z,33.61
2019-03-10T05:12:00.460Z,33.57
2019-03-10T05:14:26.800Z,33.37
2019-03-10T05:16:53.123Z,33.42
2019-03-10T05:19:19.484Z,33.49
2019-03-10T05:21:45.816Z,33.43
2019-03-10T05:24:12.180Z,33.49
2019-03-10T05:26:38.511Z,33.62
2019-03-10T05:29:04.887Z,33.63
2019-03-10T05:31:31.222Z,33.60
2019-03-10T05:33:57.576Z,33.54
2019-03-10T05:36:23.915Z,33.47
2019-03-10T05:38:50.245Z,33.64
2019-03-10T05:41:16.639Z,33.52
2019-03-10T05:43:42.984Z,33.70
2019-03-10T05:46:09.310Z,33.65
2019-03-10T05:48:35.669Z,33.69
2019-03-10T05:51:02.053Z,33.55
2019-03-10T05:53:28.434Z,33.33
2019-03-10T05:55:54.781Z,33.27
2019-03-10T05:58:21.164Z,33.32
2019-03-10T06:00:48.871Z,33.33
2019-03-10T06:03:13.849Z,33.15
2019-03-10T06:05:40.189Z,32.95
2019-03-10T06:08:06.525Z,32.78
2019-03-10T06:10:32.844Z,32.55
2019-03-10T06:12:59.203Z,32.47
2019-03-10T06:15:25.542Z,32.40
2019-03-10T06:17:52.036Z,32.31
2019-03-10T06:20:18.446Z,32.26
2019-03-10T06:22:44.779Z,32.38
2019-03-10T06:25:11.109Z,32.29
2019-03-10T06:27:37.481Z,32.32
2019-03-10T06:30:03.807Z,32.30
2019-03-10T06:32:30.230Z,32.17
2019-03-10T06:34:56.573Z,32.10
2019-03-10T06:37:22.945Z,31.98
2019-03-10T06:39:49.292Z,32.05
2019-03-10T06:42:15.640Z,32.07
2019-03-10T06:44:41.973Z,31.78
2019-03-10T06:47:08.318Z,31.78
2019-03-10T06:49:34.652Z,31.82
2019-03-10T06:52:01.016Z,31.76
2019-03-10T06:54:27.349Z,31.73
2019-03-10T06:56:53.683Z,31.69
2019-03-10T06:59:20.026Z,31.72
2019-03-10T07:01:46.376Z,31.64
2019-03-10T07:04:12.800Z,31.67
2019-03-10T07:06:39.138Z,31.53
2019-03-10T07:09:05.494Z,31.51
2019-03-10T07:11:31.835Z,31.46
2019-03-10T07:13:58.210Z,31.36
2019-03-10T07:16:24.497Z,31.35
2019-03-10T07:18:50.878Z,31.28
2019-03-10T07:21:17.236Z,31.28
2019-03-10T07:23:43.579Z,31.30
2019-03-10T07:26:09.909Z,31.24
2019-03-10T07:28:36.261Z,31.13
2019-03-10T07:31:02.593Z,31.17
2019-03-10T07:33:28.930Z,31.14
2019-03-10T07:35:55.274Z,31.07
2019-03-10T07:38:21.622Z,31.04
2019-03-10T07:40:48.004Z,31.01
2019-03-10T07:43:14.318Z,30.97
2019-03-10T07:45:40.692Z,30.89
2019-03-10T07:48:07.028Z,30.88
2019-03-10T07:50:33.413Z,30.93
2019-03-10T07:52:59.688Z,30.84
2019-03-10T07:55:26.020Z,30.84
2019-03-10T07:57:52.407Z,30.75
2019-03-10T08:00:18.751Z,30.68
2019-03-10T08:02:45.250Z,30.62
2019-03-10T08:05:11.538Z,30.60
2019-03-10T08:07:37.937Z,30.55
2019-03-10T08:10:04.277Z,30.62
2019-03-10T08:12:30.604Z,30.53
2019-03-10T08:14:57.018Z,30.61
2019-03-10T08:17:24.642Z,30.42
2019-03-10T08:19:49.634Z,30.42
2019-03-10T08:22:15.971Z,30.37
2019-03-10T08:24:42.537Z,30.32
2019-03-10T08:27:08.816Z,30.21
2019-03-10T08:29:35.156Z,30.16
2019-03-10T08:32:01.547Z,30.30
2019-03-10T08:34:27.878Z,30.17
2019-03-10T08:36:54.243Z,30.21
2019-03-10T08:39:20.807Z,30.14
2019-03-10T08:41:47.152Z,30.05
2019-03-10T08:44:13.505Z,30.11
2019-03-10T08:46:44.248Z,30.05
2019-03-10T08:49:10.655Z,30.02
2019-03-10T08:51:37.019Z,30.12
2019-03-10T08:54:03.349Z,30.21
2019-03-10T08:56:29.682Z,29.88
2019-03-10T08:58:56.032Z,29.95
2019-03-10T09:01:22.364Z,29.93
2019-03-10T09:03:48.703Z,29.85
2019-03-10T09:06:15.084Z,29.74
2019-03-10T09:08:41.367Z,29.70
2019-03-10T09:11:07.706Z,29.69
2019-03-10T09:13:34.056Z,29.73
2019-03-10T09:16:00.422Z,29.62
2019-03-10T09:18:28.695Z,29.51
2019-03-10T09:20:55.025Z,29.46
2019-03-10T09:23:21.413Z,29.43
2019-03-10T09:25:47.708Z,29.37
2019-03-10T09:28:14.037Z,29.38
2019-03-10T09:30:40.364Z,29.25
2019-03-10T09:33:06.697Z,29.34
2019-03-10T09:35:33.080Z,28.92
2019-03-10T09:37:59.423Z,28.93
2019-03-10T09:40:25.748Z,28.98
2019-03-10T09:42:52.074Z,29.08
2019-03-10T09:45:18.430Z,28.79
2019-03-10T09:47:44.787Z,28.35
2019-03-10T09:50:11.215Z,28.56
2019-03-10T09:52:37.765Z,27.82
2019-03-10T09:55:04.170Z,27.52
2019-03-10T09:57:30.511Z,27.50
2019-03-10T09:59:56.855Z,27.18
2019-03-10T10:02:23.186Z,27.57
2019-03-10T10:04:49.523Z,26.96
2019-03-10T10:07:15.851Z,27.98
2019-03-10T10:09:42.174Z,27.32
2019-03-10T10:12:13.351Z,27.52
2019-03-10T10:14:34.846Z,27.41
2019-03-10T10:17:01.173Z,27.83
2019-03-10T10:19:27.578Z,27.07
2019-03-10T10:21:53.891Z,27.16
2019-03-10T10:24:20.234Z,26.95
2019-03-10T10:26:46.581Z,27.12
2019-03-10T10:29:12.972Z,26.79
2019-03-10T10:31:39.315Z,26.76
2019-03-10T10:34:05.659Z,26.57
2019-03-10T10:36:31.987Z,26.49
2019-03-10T10:38:58.347Z,26.54
2019-03-10T10:41:24.679Z,26.38
2019-03-10T10:43:51.054Z,26.20
2019-03-10T10:46:17.406Z,26.44
2019-03-10T10:48:43.730Z,26.05
2019-03-10T10:51:10.103Z,26.20
2019-03-10T10:53:36.423Z,25.96
2019-03-10T10:56:02.773Z,25.84
2019-03-10T10:58:29.096Z,25.88
2019-03-10T11:00:55.493Z,25.68
2019-03-10T11:03:21.863Z,25.83
2019-03-10T11:05:48.191Z,25.69
2019-03-10T11:08:15.749Z,25.64
2019-03-10T11:10:40.866Z,25.57
2019-03-10T11:13:07.184Z,25.61
2019-03-10T11:15:33.577Z,25.46
2019-03-10T11:18:08.927Z,25.31
2019-03-10T11:20:26.249Z,25.27
2019-03-10T11:22:52.680Z,25.25
2019-03-10T11:25:19.016Z,25.06
2019-03-10T11:27:45.294Z,25.30
2019-03-10T11:30:11.690Z,25.12
2019-03-10T11:32:37.975Z,25.15
2019-03-10T11:35:04.318Z,24.91
2019-03-10T11:37:30.687Z,24.83
2019-03-10T11:39:57.082Z,24.79
2019-03-10T11:42:23.395Z,24.67
2019-03-10T11:44:49.691Z,24.71
2019-03-10T11:47:16.013Z,24.57
2019-03-10T11:49:42.361Z,24.67
2019-03-10T11:52:08.692Z,24.52
2019-03-10T11:54:35.040Z,24.42
2019-03-10T11:57:01.406Z,24.35
2019-03-10T11:59:27.735Z,24.34
2019-03-10T12:01:54.072Z,24.20
2019-03-10T12:04:20.398Z,24.19
2019-03-10T12:06:46.756Z,24.26
2019-03-10T12:09:13.368Z,24.02
2019-03-10T12:11:39.699Z,24.07
2019-03-10T12:14:06.077Z,23.92
2019-03-10T12:16:32.365Z,23.81
2019-03-10T12:18:58.702Z,23.78
2019-03-10T12:21:25.046Z,23.59
2019-03-10T12:23:51.377Z,23.67
2019-03-10T12:26:17.723Z,23.53
2019-03-10T12:28:44.089Z,23.43
2019-03-10T12:31:10.411Z,23.35
2019-03-10T12:33:36.761Z,23.33
2019-03-10T12:36:03.086Z,23.29
2019-03-10T12:38:29.418Z,23.21
2019-03-10T12:40:55.750Z,23.18
2019-03-10T12:43:22.104Z,23.03
2019-03-10T12:45:48.458Z,23.09
2019-03-10T12:48:14.783Z,23.05
2019-03-10T12:50:41.115Z,23.01
2019-03-10T12:53:07.462Z,22.82
2019-03-10T12:55:33.793Z,22.82
2019-03-10T12:58:00.140Z,22.93
2019-03-10T13:00:26.518Z,22.81
2019-03-10T13:02:52.819Z,22.93
2019-03-10T13:05:19.157Z,22.84
2019-03-10T13:07:45.543Z,22.97
2019-03-10T13:10:12.828Z,22.84
2019-03-10T13:12:38.271Z,22.84
2019-03-10T13:15:04.638Z,22.87
2019-03-10T13:17:30.938Z,22.78
2019-03-10T13:19:57.273Z,22.71
2019-03-10T13:22:23.588Z,23.08
2019-03-10T13:24:49.957Z,22.61
2019-03-10T13:27:16.289Z,22.56
2019-03-10T13:29:42.717Z,22.74
2019-03-10T13:32:09.031Z,22.61
2019-03-10T13:34:35.362Z,22.58
2019-03-10T13:37:01.681Z,22.82
2019-03-10T13:39:28.032Z,22.61
2019-03-10T13:41:54.362Z,22.79
2019-03-10T13:44:20.695Z,22.61
2019-03-10T13:46:47.136Z,22.45
2019-03-10T13:49:13.481Z,22.45
2019-03-10T13:51:39.809Z,22.32
2019-03-10T13:54:06.149Z,22.74
2019-03-10T13:56:32.512Z,22.24
2019-03-10T13:58:58.864Z,22.51
2019-03-10T14:01:25.193Z,22.29
2019-03-10T14:03:51.559Z,22.56
2019-03-10T14:06:17.902Z,23.08
2019-03-10T14:08:44.294Z,22.83
2019-03-10T14:11:10.604Z,23.06
2019-03-10T14:13:36.982Z,22.62
2019-03-10T14:16:03.312Z,22.64
2019-03-10T14:18:29.641Z,22.66
2019-03-10T14:20:56.063Z,22.98
2019-03-10T14:23:22.353Z,23.65
2019-03-10T14:25:48.727Z,23.46
2019-03-10T14:28:15.116Z,22.84
2019-03-10T14:30:41.482Z,23.42
2019-03-10T14:33:07.908Z,24.20
2019-03-10T14:35:34.233Z,24.09
2019-03-10T14:38:00.654Z,23.58
2019-03-10T14:40:26.992Z,23.93
2019-03-10T14:42:53.310Z,24.93
2019-03-10T14:45:19.984Z,25.31
2019-03-10T14:47:46.444Z,25.94
2019-03-10T14:50:12.788Z,25.90
2019-03-10T14:52:39.352Z,25.70
2019-03-10T14:55:05.680Z,25.87
2019-03-10T14:57:32.010Z,25.80
2019-03-10T14:59:58.368Z,25.69
2019-03-10T15:02:27.012Z,25.64
2019-03-10T15:04:51.079Z,25.28
2019-03-10T15:07:17.469Z,25.18
2019-03-10T15:09:43.844Z,24.77
2019-03-10T15:12:10.172Z,24.64
2019-03-10T15:14:36.515Z,24.25
2019-03-10T15:17:02.914Z,23.91
2019-03-10T15:19:29.291Z,23.56
2019-03-10T15:21:55.633Z,23.35
2019-03-10T15:24:22.034Z,23.39
2019-03-10T15:26:48.464Z,22.85
2019-03-10T15:29:14.874Z,22.80
2019-03-10T15:31:41.260Z,22.55
2019-03-10T15:34:07.619Z,22.54
2019-03-10T15:36:33.970Z,22.55
2019-03-10T15:39:00.307Z,22.32
2019-03-10T15:41:27.042Z,22.39
2019-03-10T15:43:53.389Z,22.32
2019-03-10T15:46:19.793Z,22.30
2019-03-10T15:48:46.194Z,22.33
2019-03-10T15:51:12.476Z,22.04
2019-03-10T15:53:38.910Z,22.13
2019-03-10T15:56:05.203Z,22.10
2019-03-10T15:58:31.571Z,22.16
2019-03-10T16:00:57.970Z,22.10
2019-03-10T16:03:24.306Z,22.20
2019-03-10T16:05:50.770Z,22.19
2019-03-10T16:08:17.178Z,22.16
2019-03-10T16:10:44.937Z,22.15
2019-03-10T16:13:09.894Z,22.14
2019-03-10T16:15:36.225Z,22.16
2019-03-10T16:18:02.597Z,22.06
2019-03-10T16:20:28.985Z,22.07
2019-03-10T16:22:55.655Z,22.13
2019-03-10T16:25:21.643Z,22.10
2019-03-10T16:27:49.867Z,22.10
2019-03-10T16:30:14.336Z,22.13
2019-03-10T16:32:40.860Z,23.00
2019-03-10T16:35:07.244Z,22.60
2019-03-10T16:37:33.612Z,22.47
2019-03-10T16:40:00.013Z,22.19
2019-03-10T16:42:26.332Z,22.09
2019-03-10T16:44:52.659Z,22.15
2019-03-10T16:47:19.044Z,22.04
2019-03-10T16:49:45.380Z,22.11
2019-03-10T16:52:12.214Z,21.85
2019-03-10T16:54:38.057Z,21.71
2019-03-10T16:57:04.454Z,21.65
2019-03-10T16:59:30.781Z,21.81
2019-03-10T17:01:57.153Z,21.53
2019-03-10T17:04:23.497Z,21.55
2019-03-10T17:06:49.854Z,21.67
2019-03-10T17:09:16.157Z,21.44
2019-03-10T17:11:42.531Z,21.36
2019-03-10T17:14:08.952Z,21.53
2019-03-10T17:16:35.266Z,21.52
2019-03-10T17:19:01.562Z,21.58
2019-03-10T17:21:27.938Z,21.84
2019-03-10T17:23:54.318Z,21.68
2019-03-10T17:26:20.665Z,21.61
2019-03-10T17:28:47.003Z,21.88
2019-03-10T17:31:13.354Z,21.81
2019-03-10T17:33:39.735Z,21.19
2019-03-10T17:36:06.122Z,22.00
2019-03-10T17:38:32.456Z,21.35
2019-03-10T17:40:58.790Z,21.83
2019-03-10T17:43:25.122Z,21.81
2019-03-10T17:45:51.545Z,21.76
2019-03-10T17:48:17.875Z,21.81
2019-03-10T17:50:44.219Z,21.97
2019-03-10T17:53:10.548Z,21.57
2019-03-10T17:55:36.986Z,22.05
2019-03-10T17:58:03.317Z,21.67
2019-03-10T18:00:29.725Z,21.72
2019-03-10T18:02:56.010Z,21.87
2019-03-10T18:05:22.337Z,22.04
2019-03-10T18:07:48.776Z,22.05
2019-03-10T18:10:15.213Z,21.68
2019-03-10T18:12:41.737Z,22.08
2019-03-10T18:15:09.096Z,22.09
2019-03-10T18:17:34.469Z,22.00
2019-03-10T18:20:00.928Z,22.20
2019-03-10T18:22:27.267Z,22.10
2019-03-10T18:24:53.655Z,22.28
2019-03-10T18:27:19.959Z,22.00
2019-03-10T18:29:46.319Z,22.35
2019-03-10T18:32:12.660Z,22.35
2019-03-10T18:34:38.980Z,22.34
2019-03-10T18:37:05.319Z,22.24
2019-03-10T18:39:31.659Z,22.40
2019-03-10T18:41:58.028Z,22.31
2019-03-10T18:44:24.384Z,22.34
2019-03-10T18:46:50.771Z,22.68
2019-03-10T18:49:17.113Z,22.68
2019-03-10T18:51:43.450Z,22.48
2019-03-10T18:54:09.806Z,22.74
2019-03-10T18:56:36.183Z,22.73
2019-03-10T18:59:02.516Z,22.49
2019-03-10T19:01:28.948Z,22.52
2019-03-10T19:03:55.396Z,22.31
2019-03-10T19:06:21.727Z,23.07
2019-03-10T19:08:48.083Z,22.57
2019-03-10T19:11:14.417Z,22.74
2019-03-10T19:13:40.746Z,22.81
2019-03-10T19:16:07.079Z,23.03
2019-03-10T19:18:33.416Z,22.88
2019-03-10T19:20:59.786Z,22.60
2019-03-10T19:23:26.127Z,22.58
2019-03-10T19:25:52.524Z,22.87
2019-03-10T19:28:18.867Z,22.61
2019-03-10T19:30:45.210Z,22.81
2019-03-10T19:33:11.635Z,22.90
2019-03-10T19:35:37.899Z,22.70
2019-03-10T19:38:04.699Z,23.29
2019-03-10T19:40:30.674Z,23.00
2019-03-10T19:42:57.064Z,22.96
2019-03-10T19:45:23.419Z,22.88
2019-03-10T19:47:49.762Z,22.84
2019-03-10T19:50:16.147Z,23.04
2019-03-10T19:52:42.495Z,22.80
2019-03-10T19:55:08.827Z,22.82
2019-03-10T19:57:35.172Z,22.89
2019-03-10T20:00:01.502Z,22.77
2019-03-10T20:02:27.835Z,22.90
2019-03-10T20:04:54.231Z,23.18
2019-03-10T20:07:20.573Z,22.80
2019-03-10T20:09:46.922Z,22.98
2019-03-10T20:12:13.258Z,23.26
2019-03-10T20:14:39.609Z,23.16
2019-03-10T20:17:06.009Z,23.20
2019-03-10T20:19:32.368Z,23.21
2019-03-10T20:21:58.709Z,23.23
2019-03-10T20:24:25.177Z,23.67
2019-03-10T20:26:51.489Z,23.81
2019-03-10T20:29:17.862Z,23.61
2019-03-10T20:31:44.299Z,23.48
2019-03-10T20:34:10.585Z,23.30
2019-03-10T20:36:36.975Z,23.38
2019-03-10T20:39:03.353Z,23.48
2019-03-10T20:41:29.701Z,23.33
2019-03-10T20:43:56.050Z,23.47
2019-03-10T20:46:22.379Z,23.52
2019-03-10T20:48:48.711Z,23.64
2019-03-10T20:51:15.093Z,23.41
2019-03-10T20:53:41.427Z,23.70
2019-03-10T20:56:08.059Z,23.60
2019-03-10T20:58:35.062Z,23.63
2019-03-10T21:01:00.705Z,23.47
2019-03-10T21:03:27.028Z,23.45
2019-03-10T21:05:53.442Z,23.93
2019-03-10T21:08:19.766Z,23.67
2019-03-10T21:10:46.089Z,23.80
2019-03-10T21:13:12.435Z,23.57
2019-03-10T21:15:38.844Z,23.64
2019-03-10T21:18:05.200Z,23.66
2019-03-10T21:20:31.674Z,23.74
2019-03-10T21:22:58.071Z,24.11
2019-03-10T21:25:24.410Z,23.79
2019-03-10T21:27:50.756Z,23.74
2019-03-10T21:30:17.108Z,23.98
2019-03-10T21:32:43.498Z,23.79
2019-03-10T21:35:17.510Z,24.12
2019-03-10T21:37:36.193Z,23.77
2019-03-10T21:40:02.543Z,23.82
2019-03-10T21:42:28.880Z,23.91
2019-03-10T21:44:55.379Z,23.85
2019-03-10T21:47:21.737Z,23.79
2019-03-10T21:49:48.143Z,24.11
2019-03-10T21:52:14.481Z,23.87
2019-03-10T21:54:40.880Z,24.04
2019-03-10T21:57:07.276Z,24.00
2019-03-10T21:59:33.548Z,23.98
2019-03-10T22:01:59.906Z,24.15
2019-03-10T22:04:26.238Z,23.98
2019-03-10T22:06:52.594Z,24.03
2019-03-10T22:09:18.972Z,23.95
2019-03-10T22:11:45.302Z,24.34
2019-03-10T22:14:11.652Z,24.00
2019-03-10T22:16:38.026Z,24.23
2019-03-10T22:19:04.356Z,24.21
2019-03-10T22:21:30.750Z,24.28
2019-03-10T22:23:59.578Z,24.23
2019-03-10T22:26:23.383Z,24.13
2019-03-10T22:28:49.892Z,24.26
2019-03-10T22:31:16.148Z,24.16
2019-03-10T22:33:42.428Z,24.48
2019-03-10T22:36:08.758Z,24.22
2019-03-10T22:38:35.098Z,24.32
2019-03-10T22:41:01.425Z,24.60
2019-03-10T22:43:27.885Z,24.38
2019-03-10T22:45:54.245Z,24.35
2019-03-10T22:48:20.574Z,24.60
2019-03-10T22:50:46.928Z,24.44
2019-03-10T22:53:13.308Z,24.75
2019-03-10T22:55:39.706Z,24.59
2019-03-10T22:58:06.035Z,24.71
2019-03-10T23:00:32.363Z,24.43
2019-03-10T23:02:58.747Z,24.66
2019-03-10T23:05:25.092Z,24.83
2019-03-10T23:07:51.527Z,24.74
2019-03-10T23:10:17.983Z,24.66
2019-03-10T23:12:44.621Z,24.70
2019-03-10T23:15:10.968Z,24.73
2019-03-10T23:17:37.293Z,24.71
2019-03-10T23:20:03.646Z,24.99
2019-03-10T23:22:30.002Z,25.03
2019-03-10T23:24:56.476Z,25.06
2019-03-10T23:27:22.882Z,25.14
2019-03-10T23:29:49.228Z,25.38
2019-03-10T23:32:15.559Z,25.19
2019-03-10T23:34:41.910Z,25.56
2019-03-10T23:37:08.240Z,25.48
2019-03-10T23:39:34.589Z,25.41
2019-03-10T23:42:00.962Z,25.31
2019-03-10T23:44:27.354Z,25.44
2019-03-10T23:46:53.685Z,25.45
2019-03-10T23:49:20.065Z,25.64
2019-03-10T23:51:46.346Z,25.72
2019-03-10T23:54:12.688Z,25.71
2019-03-10T23:56:39.056Z,25.74
2019-03-10T23:59:05.386Z,25.68
